createdAt,value
2019-03-16T00:00:36.698Z,95.01
2019-03-16T00:01:37.169Z,94.97
2019-03-16T00:02:37.639Z,94.99
2019-03-16T00:03:38.114Z,94.97
2019-03-16T00:04:38.582Z,94.97
2019-03-16T00:05:39.052Z,94.98
2019-03-16T00:06:39.525Z,95.01
2019-03-16T00:07:39.995Z,95.01
2019-03-16T00:08:40.465Z,94.97
2019-03-16T00:09:40.936Z,94.97
2019-03-16T00:10:41.407Z,94.97
2019-03-16T00:11:41.919Z,94.99
2019-03-16T00:12:42.373Z,94.97
2019-03-16T00:13:42.823Z,95.00
2019-03-16T00:14:43.295Z,94.97
2019-03-16T00:15:43.764Z,95.01
2019-03-16T00:16:44.237Z,94.99
2019-03-16T00:17:44.705Z,94.99
2019-03-16T00:18:45.177Z,94.99
2019-03-16T00:19:45.649Z,95.01
2019-03-16T00:20:46.121Z,94.99
2019-03-16T00:21:46.591Z,95.01
2019-03-16T00:22:47.061Z,94.97
2019-03-16T00:23:47.532Z,94.99
2019-03-16T00:24:48.005Z,94.97
2019-03-16T00:25:48.475Z,94.97
2019-03-16T00:26:48.951Z,94.99
2019-03-16T00:27:49.418Z,95.01
2019-03-16T00:28:49.889Z,94.97
2019-03-16T00:29:50.361Z,94.97
2019-03-16T00:30:50.829Z,95.00
2019-03-16T00:31:51.302Z,94.97
2019-03-16T00:32:51.773Z,95.01
2019-03-16T00:33:52.252Z,95.01
2019-03-16T00:34:52.714Z,95.01
2019-03-16T00:35:53.186Z,94.99
2019-03-16T00:36:53.661Z,95.01
2019-03-16T00:37:54.127Z,95.01
2019-03-16T00:38:54.600Z,94.98
2019-03-16T00:39:55.072Z,95.01
2019-03-16T00:40:55.541Z,95.01
2019-03-16T00:41:56.064Z,94.98
2019-03-16T00:42:56.484Z,95.00
2019-03-16T00:43:56.954Z,95.02
2019-03-16T00:44:57.427Z,94.99
2019-03-16T00:45:57.895Z,95.01
2019-03-16T00:46:58.397Z,95.02
2019-03-16T00:47:58.838Z,95.02
2019-03-16T00:48:59.310Z,95.02
2019-03-16T00:49:59.783Z,95.02
2019-03-16T00:51:00.255Z,95.02
2019-03-16T00:52:00.722Z,95.02
2019-03-16T00:53:01.195Z,94.98
2019-03-16T00:54:01.666Z,95.02
2019-03-16T00:55:02.144Z,95.02
2019-03-16T00:56:02.612Z,95.02
2019-03-16T00:57:03.128Z,95.02
2019-03-16T00:58:03.548Z,95.02
2019-03-16T00:59:04.020Z,95.02
2019-03-16T01:00:04.490Z,95.02
2019-03-16T01:01:04.962Z,95.02
2019-03-16T01:02:05.435Z,95.02
2019-03-16T01:03:05.908Z,95.03
2019-03-16T01:04:06.376Z,95.03
2019-03-16T01:05:06.845Z,95.02
2019-03-16T01:06:07.319Z,95.02
2019-03-16T01:07:08.132Z,95.02
2019-03-16T01:08:08.259Z,95.03
2019-03-16T01:09:08.731Z,95.03
2019-03-16T01:10:09.202Z,95.03
2019-03-16T01:11:09.675Z,95.03
2019-03-16T01:12:10.143Z,95.03
2019-03-16T01:13:10.616Z,95.03
2019-03-16T01:14:11.085Z,95.03
2019-03-16T01:15:11.560Z,95.04
2019-03-16T01:16:12.030Z,95.04
2019-03-16T01:17:12.500Z,95.03
2019-03-16T01:18:12.969Z,95.03
2019-03-16T01:19:13.443Z,95.03
2019-03-16T01:20:13.918Z,95.03
2019-03-16T01:21:14.382Z,95.04
2019-03-16T01:22:14.856Z,95.03
2019-03-16T01:23:17.631Z,95.04
2019-03-16T01:24:15.802Z,95.04
2019-03-16T01:25:16.269Z,95.04
2019-03-16T01:26:16.741Z,95.04
2019-03-16T01:27:17.216Z,95.04
2019-03-16T01:28:17.684Z,95.04
2019-03-16T01:29:18.152Z,95.04
2019-03-16T01:30:18.623Z,95.04
2019-03-16T01:31:19.095Z,95.04
2019-03-16T01:32:19.566Z,95.04
2019-03-16T01:33:20.038Z,95.04
2019-03-16T01:34:20.508Z,95.04
2019-03-16T01:35:20.981Z,95.04
2019-03-16T01:36:21.449Z,95.04
2019-03-16T01:37:21.920Z,95.05
2019-03-16T01:38:22.450Z,95.05
2019-03-16T01:39:22.861Z,95.04
2019-03-16T01:40:23.337Z,95.04
2019-03-16T01:41:23.829Z,95.04
2019-03-16T01:43:24.748Z,95.04
2019-03-16T01:44:25.218Z,95.04
2019-03-16T01:45:25.690Z,95.05
2019-03-16T01:46:26.165Z,95.05
2019-03-16T01:47:26.632Z,95.05
2019-03-16T01:48:27.103Z,95.05
2019-03-16T01:49:27.571Z,95.07
2019-03-16T01:50:28.044Z,95.05
2019-03-16T01:51:28.513Z,95.05
2019-03-16T01:52:28.999Z,95.05
2019-03-16T01:53:29.458Z,95.05
2019-03-16T01:54:29.926Z,95.09
2019-03-16T01:55:30.476Z,95.05
2019-03-16T01:56:30.869Z,95.05
2019-03-16T01:57:31.340Z,95.09
2019-03-16T01:58:31.811Z,95.05
2019-03-16T01:59:32.283Z,95.05
2019-03-16T02:00:32.754Z,95.10
2019-03-16T02:01:33.228Z,95.05
2019-03-16T02:02:33.846Z,95.07
2019-03-16T02:03:34.165Z,95.06
2019-03-16T02:04:34.638Z,95.06
2019-03-16T02:05:35.108Z,95.10
2019-03-16T02:06:35.584Z,95.07
2019-03-16T02:07:36.049Z,95.06
2019-03-16T02:08:36.521Z,95.08
2019-03-16T02:09:37.194Z,95.07
2019-03-16T02:10:37.464Z,95.10
2019-03-16T02:11:37.936Z,95.06
2019-03-16T02:12:38.406Z,95.10
2019-03-16T02:13:38.879Z,95.10
2019-03-16T02:14:39.347Z,95.10
2019-03-16T02:15:39.822Z,95.10
2019-03-16T02:16:40.300Z,95.10
2019-03-16T02:17:40.767Z,95.10
2019-03-16T02:18:41.230Z,95.10
2019-03-16T02:19:41.705Z,95.10
2019-03-16T02:20:42.174Z,95.10
2019-03-16T02:21:42.685Z,95.10
2019-03-16T02:22:43.115Z,95.10
2019-03-16T02:23:43.586Z,95.10
2019-03-16T02:24:44.058Z,95.10
2019-03-16T02:25:44.528Z,95.10
2019-03-16T02:26:44.999Z,95.10
2019-03-16T02:27:45.470Z,95.11
2019-03-16T02:28:45.942Z,95.10
2019-03-16T02:29:46.419Z,95.10
2019-03-16T02:30:46.886Z,95.11
2019-03-16T02:31:47.354Z,95.10
2019-03-16T02:32:47.828Z,95.10
2019-03-16T02:33:48.298Z,95.11
2019-03-16T02:34:48.769Z,95.11
2019-03-16T02:35:49.239Z,95.10
2019-03-16T02:36:49.716Z,95.11
2019-03-16T02:37:50.186Z,95.11
2019-03-16T02:38:50.667Z,95.11
2019-03-16T02:39:51.135Z,95.11
2019-03-16T02:40:51.595Z,95.11
2019-03-16T02:41:52.065Z,95.11
2019-03-16T02:42:52.539Z,95.11
2019-03-16T02:43:53.010Z,95.11
2019-03-16T02:44:53.479Z,95.11
2019-03-16T02:45:53.955Z,95.11
2019-03-16T02:46:54.431Z,95.11
2019-03-16T02:47:54.896Z,95.11
2019-03-16T02:48:55.364Z,95.11
2019-03-16T02:49:55.833Z,95.11
2019-03-16T02:50:56.305Z,95.11
2019-03-16T02:51:56.775Z,95.11
2019-03-16T02:52:57.247Z,95.11
2019-03-16T02:53:57.781Z,95.11
2019-03-16T02:54:58.188Z,95.11
2019-03-16T02:55:58.664Z,95.11
2019-03-16T02:56:59.136Z,95.11
2019-03-16T02:57:59.652Z,95.11
2019-03-16T02:59:00.075Z,95.11
2019-03-16T03:00:00.567Z,95.12
2019-03-16T03:01:01.017Z,95.11
2019-03-16T03:02:01.487Z,95.12
2019-03-16T03:03:01.981Z,95.15
2019-03-16T03:04:02.429Z,95.12
2019-03-16T03:05:02.905Z,95.12
2019-03-16T03:06:03.369Z,95.12
2019-03-16T03:07:03.845Z,95.11
2019-03-16T03:08:04.336Z,95.12
2019-03-16T03:09:04.785Z,95.12
2019-03-16T03:10:05.259Z,95.12
2019-03-16T03:11:05.745Z,95.12
2019-03-16T03:12:06.201Z,95.12
2019-03-16T03:13:06.675Z,95.12
2019-03-16T03:14:07.142Z,95.14
2019-03-16T03:15:07.614Z,95.12
2019-03-16T03:16:08.099Z,95.12
2019-03-16T03:17:08.553Z,95.12
2019-03-16T03:18:09.027Z,95.12
2019-03-16T03:19:09.496Z,95.12
2019-03-16T03:20:09.970Z,95.12
2019-03-16T03:21:10.439Z,95.12
2019-03-16T03:22:10.911Z,95.14
2019-03-16T03:23:11.385Z,95.12
2019-03-16T03:24:11.857Z,95.13
2019-03-16T03:25:12.329Z,95.12
2019-03-16T03:26:12.792Z,95.14
2019-03-16T03:27:13.262Z,95.13
2019-03-16T03:28:13.735Z,95.14
2019-03-16T03:29:14.209Z,95.14
2019-03-16T03:30:14.718Z,95.16
2019-03-16T03:31:15.151Z,95.16
2019-03-16T03:32:15.623Z,95.12
2019-03-16T03:33:16.093Z,95.14
2019-03-16T03:34:16.601Z,95.15
2019-03-16T03:35:17.056Z,95.16
2019-03-16T03:36:17.506Z,95.17
2019-03-16T03:37:17.974Z,95.17
2019-03-16T03:38:18.464Z,95.17
2019-03-16T03:39:18.915Z,95.13
2019-03-16T03:40:19.389Z,95.14
2019-03-16T03:41:19.860Z,95.13
2019-03-16T03:42:20.330Z,95.17
2019-03-16T03:43:20.802Z,95.15
2019-03-16T03:44:21.272Z,95.15
2019-03-16T03:45:21.745Z,95.17
2019-03-16T03:46:22.233Z,95.17
2019-03-16T03:47:22.689Z,95.17
2019-03-16T03:48:23.159Z,95.15
2019-03-16T03:49:23.633Z,95.17
2019-03-16T03:50:24.104Z,95.18
2019-03-16T03:51:24.570Z,95.17
2019-03-16T03:52:25.043Z,95.17
2019-03-16T03:53:25.515Z,95.17
2019-03-16T03:54:25.992Z,95.17
2019-03-16T03:55:26.454Z,95.18
2019-03-16T03:56:26.932Z,95.18
2019-03-16T03:57:27.400Z,95.16
2019-03-16T03:58:27.868Z,95.18
2019-03-16T03:59:28.340Z,95.18
2019-03-16T04:00:28.813Z,95.18
2019-03-16T04:01:29.299Z,95.18
2019-03-16T04:02:29.760Z,95.18
2019-03-16T04:03:30.225Z,95.18
2019-03-16T04:04:30.696Z,95.18
2019-03-16T04:05:31.166Z,95.18
2019-03-16T04:06:31.637Z,95.18
2019-03-16T04:07:32.111Z,95.18
2019-03-16T04:08:32.608Z,95.18
2019-03-16T04:09:33.053Z,95.19
2019-03-16T04:10:33.522Z,95.18
2019-03-16T04:11:33.995Z,95.19
2019-03-16T04:12:34.478Z,95.18
2019-03-16T04:13:34.942Z,95.19
2019-03-16T04:14:35.413Z,95.19
2019-03-16T04:15:35.878Z,95.19
2019-03-16T04:16:36.350Z,95.19
2019-03-16T04:17:36.822Z,95.19
2019-03-16T04:18:37.306Z,95.19
2019-03-16T04:19:37.765Z,95.19
2019-03-16T04:20:38.235Z,95.19
2019-03-16T04:21:38.736Z,95.19
2019-03-16T04:22:39.178Z,95.18
2019-03-16T04:23:39.649Z,95.19
2019-03-16T04:24:40.119Z,95.19
2019-03-16T04:25:40.604Z,95.19
2019-03-16T04:26:41.067Z,95.19
2019-03-16T04:27:41.533Z,95.19
2019-03-16T04:28:42.004Z,95.19
2019-03-16T04:29:42.474Z,95.19
2019-03-16T04:30:42.948Z,95.19
2019-03-16T04:31:43.418Z,95.19
2019-03-16T04:32:43.892Z,95.19
2019-03-16T04:33:44.360Z,95.19
2019-03-16T04:34:45.295Z,95.19
2019-03-16T04:35:45.303Z,95.20
2019-03-16T04:36:45.773Z,95.19
2019-03-16T04:37:46.249Z,95.20
2019-03-16T04:38:46.716Z,95.20
2019-03-16T04:39:47.190Z,95.20
2019-03-16T04:40:47.658Z,95.19
2019-03-16T04:41:48.129Z,95.19
2019-03-16T04:42:48.599Z,95.20
2019-03-16T04:43:49.122Z,95.20
2019-03-16T04:44:49.544Z,95.20
2019-03-16T04:45:50.014Z,95.20
2019-03-16T04:46:50.485Z,95.20
2019-03-16T04:47:50.956Z,95.20
2019-03-16T04:48:51.429Z,95.20
2019-03-16T04:49:51.911Z,95.20
2019-03-16T04:50:52.371Z,95.22
2019-03-16T04:51:52.844Z,95.20
2019-03-16T04:52:53.310Z,95.20
2019-03-16T04:53:53.785Z,95.20
2019-03-16T04:54:54.253Z,95.20
2019-03-16T04:55:54.728Z,95.22
2019-03-16T04:56:55.196Z,95.20
2019-03-16T04:57:55.770Z,95.20
2019-03-16T04:58:56.189Z,95.20
2019-03-16T04:59:56.610Z,95.20
2019-03-16T05:00:57.081Z,95.20
2019-03-16T05:01:57.552Z,95.23
2019-03-16T05:02:58.025Z,95.22
2019-03-16T05:03:58.546Z,95.24
2019-03-16T05:04:58.968Z,95.23
2019-03-16T05:05:59.437Z,95.21
2019-03-16T05:06:59.909Z,95.22
2019-03-16T05:08:00.380Z,95.24
2019-03-16T05:09:00.854Z,95.21
2019-03-16T05:10:01.326Z,95.22
2019-03-16T05:11:01.792Z,95.21
2019-03-16T05:12:02.265Z,95.21
2019-03-16T05:13:02.735Z,95.25
2019-03-16T05:14:03.208Z,95.21
2019-03-16T05:15:03.681Z,95.21
2019-03-16T05:16:04.150Z,95.23
2019-03-16T05:17:04.620Z,95.21
2019-03-16T05:18:05.094Z,95.21
2019-03-16T05:19:05.562Z,95.21
2019-03-16T05:20:06.033Z,95.23
2019-03-16T05:21:06.503Z,95.23
2019-03-16T05:22:06.975Z,95.21
2019-03-16T05:23:07.447Z,95.21
2019-03-16T05:24:07.918Z,95.24
2019-03-16T05:25:08.390Z,95.24
2019-03-16T05:26:08.859Z,95.21
2019-03-16T05:27:09.331Z,95.21
2019-03-16T05:28:09.805Z,95.25
2019-03-16T05:29:10.275Z,95.21
2019-03-16T05:30:10.746Z,95.21
2019-03-16T05:31:11.217Z,95.25
2019-03-16T05:32:11.685Z,95.23
2019-03-16T05:33:12.160Z,95.22
2019-03-16T05:34:12.704Z,95.25
2019-03-16T05:35:13.101Z,95.21
2019-03-16T05:36:13.572Z,95.23
2019-03-16T05:37:14.043Z,95.23
2019-03-16T05:38:14.514Z,95.23
2019-03-16T05:39:14.987Z,95.21
2019-03-16T05:40:15.457Z,95.25
2019-03-16T05:41:15.929Z,95.25
2019-03-16T05:42:16.400Z,95.25
2019-03-16T05:43:16.870Z,95.26
2019-03-16T05:44:17.395Z,95.25
2019-03-16T05:45:17.812Z,95.25
2019-03-16T05:46:18.283Z,95.25
2019-03-16T05:47:18.754Z,95.26
2019-03-16T05:48:19.225Z,95.26
2019-03-16T05:49:19.696Z,95.25
2019-03-16T05:50:20.170Z,95.26
2019-03-16T05:51:20.639Z,95.25
2019-03-16T05:52:21.113Z,95.26
2019-03-16T05:53:21.581Z,95.24
2019-03-16T05:54:22.052Z,95.25
2019-03-16T05:55:22.528Z,95.26
2019-03-16T05:56:23.000Z,95.25
2019-03-16T05:57:23.475Z,95.24
2019-03-16T05:58:23.985Z,95.26
2019-03-16T05:59:24.411Z,95.25
2019-03-16T06:00:25.082Z,95.26
2019-03-16T06:01:25.352Z,95.25
2019-03-16T06:02:25.824Z,95.25
2019-03-16T06:03:26.293Z,95.26
2019-03-16T06:04:26.767Z,95.26
2019-03-16T06:05:27.239Z,95.26
2019-03-16T06:06:27.740Z,95.23
2019-03-16T06:07:28.180Z,95.25
2019-03-16T06:08:28.652Z,95.26
2019-03-16T06:09:29.122Z,95.26
2019-03-16T06:10:29.592Z,95.24
2019-03-16T06:11:30.065Z,95.25
2019-03-16T06:12:30.537Z,95.26
2019-03-16T06:13:31.007Z,95.25
2019-03-16T06:14:31.479Z,95.26
2019-03-16T06:15:31.949Z,95.26
2019-03-16T06:16:32.425Z,95.26
2019-03-16T06:17:32.893Z,95.25
2019-03-16T06:18:33.365Z,95.26
2019-03-16T06:19:33.835Z,95.26
2019-03-16T06:20:34.306Z,95.26
2019-03-16T06:21:34.780Z,95.26
2019-03-16T06:22:35.249Z,95.26
2019-03-16T06:23:35.719Z,95.26
2019-03-16T06:24:36.194Z,95.26
2019-03-16T06:25:36.663Z,95.26
2019-03-16T06:26:37.135Z,95.26
2019-03-16T06:27:37.605Z,95.26
2019-03-16T06:28:38.078Z,95.26
2019-03-16T06:29:38.549Z,95.26
2019-03-16T06:30:39.025Z,95.26
2019-03-16T06:31:39.491Z,95.26
2019-03-16T06:32:39.963Z,95.26
2019-03-16T06:33:40.434Z,95.26
2019-03-16T06:34:40.907Z,95.26
2019-03-16T06:35:41.376Z,95.26
2019-03-16T06:36:41.848Z,95.26
2019-03-16T06:37:42.317Z,95.26
2019-03-16T06:38:42.793Z,95.26
2019-03-16T06:39:43.262Z,95.27
2019-03-16T06:40:43.734Z,95.27
2019-03-16T06:41:44.204Z,95.27
2019-03-16T06:42:44.674Z,95.26
2019-03-16T06:43:45.145Z,95.26
2019-03-16T06:44:45.618Z,95.27
2019-03-16T06:45:46.088Z,95.29
2019-03-16T06:46:46.560Z,95.27
2019-03-16T06:47:47.034Z,95.27
2019-03-16T06:48:47.501Z,95.27
2019-03-16T06:49:47.973Z,95.27
2019-03-16T06:50:48.445Z,95.27
2019-03-16T06:51:48.917Z,95.27
2019-03-16T06:52:49.390Z,95.28
2019-03-16T06:53:49.914Z,95.28
2019-03-16T06:54:50.331Z,95.28
2019-03-16T06:55:50.799Z,95.27
2019-03-16T06:56:51.274Z,95.28
2019-03-16T06:57:51.746Z,95.30
2019-03-16T06:58:52.215Z,95.28
2019-03-16T06:59:52.689Z,95.28
2019-03-16T07:00:53.157Z,95.28
2019-03-16T07:01:53.629Z,95.28
2019-03-16T07:02:54.098Z,95.29
2019-03-16T07:03:54.570Z,95.28
2019-03-16T07:04:55.050Z,95.28
2019-03-16T07:05:55.513Z,95.30
2019-03-16T07:06:55.988Z,95.28
2019-03-16T07:07:56.457Z,95.30
2019-03-16T07:08:56.925Z,95.32
2019-03-16T07:09:57.397Z,95.30
2019-03-16T07:10:57.867Z,95.30
2019-03-16T07:11:58.339Z,95.30
2019-03-16T07:12:58.814Z,95.30
2019-03-16T07:13:59.284Z,95.32
2019-03-16T07:14:59.755Z,95.29
2019-03-16T07:16:00.224Z,95.32
2019-03-16T07:17:02.220Z,95.29
2019-03-16T07:18:01.171Z,95.33
2019-03-16T07:19:01.636Z,95.33
2019-03-16T07:20:02.119Z,95.29
2019-03-16T07:21:02.580Z,95.29
2019-03-16T07:22:03.051Z,95.29
2019-03-16T07:23:03.524Z,95.31
2019-03-16T07:24:03.993Z,95.33
2019-03-16T07:25:04.467Z,95.33
2019-03-16T07:26:14.841Z,95.33
2019-03-16T07:27:05.411Z,95.31
2019-03-16T07:28:05.877Z,95.32
2019-03-16T07:29:06.352Z,95.33
2019-03-16T07:30:06.820Z,95.33
2019-03-16T07:31:07.498Z,95.29
2019-03-16T07:32:07.762Z,95.29
2019-03-16T07:33:08.234Z,95.31
2019-03-16T07:34:08.705Z,95.29
2019-03-16T07:35:09.229Z,95.33
2019-03-16T07:36:09.649Z,95.33
2019-03-16T07:37:10.119Z,95.33
2019-03-16T07:38:10.591Z,95.29
2019-03-16T07:39:11.068Z,95.29
2019-03-16T07:40:11.536Z,95.31
2019-03-16T07:41:12.003Z,95.29
2019-03-16T07:42:12.479Z,95.29
2019-03-16T07:43:12.948Z,95.29
2019-03-16T07:44:13.417Z,95.29
2019-03-16T07:45:13.888Z,95.29
2019-03-16T07:46:14.359Z,95.32
2019-03-16T07:47:14.830Z,95.32
2019-03-16T07:48:15.302Z,95.30
2019-03-16T07:49:15.773Z,95.32
2019-03-16T07:50:16.245Z,95.29
2019-03-16T07:51:16.715Z,95.29
2019-03-16T07:52:17.187Z,95.32
2019-03-16T07:53:17.658Z,95.29
2019-03-16T07:54:18.131Z,95.30
2019-03-16T07:55:18.601Z,95.28
2019-03-16T07:56:19.075Z,95.28
2019-03-16T07:57:19.545Z,95.28
2019-03-16T07:58:20.012Z,95.29
2019-03-16T07:59:20.484Z,95.28
2019-03-16T08:00:20.956Z,95.28
2019-03-16T08:01:21.428Z,95.28
2019-03-16T08:02:21.898Z,95.27
2019-03-16T08:03:22.657Z,95.28
2019-03-16T08:04:22.841Z,95.28
2019-03-16T08:05:23.310Z,95.27
2019-03-16T08:06:23.781Z,95.28
2019-03-16T08:07:24.255Z,95.27
2019-03-16T08:08:24.732Z,95.27
2019-03-16T08:09:25.198Z,95.27
2019-03-16T08:10:25.666Z,95.27
2019-03-16T08:11:26.138Z,95.27
2019-03-16T08:12:26.611Z,95.27
2019-03-16T08:13:27.092Z,95.27
2019-03-16T08:14:27.550Z,95.27
2019-03-16T08:15:28.287Z,95.27
2019-03-16T08:16:28.494Z,95.27
2019-03-16T08:17:28.964Z,95.26
2019-03-16T08:18:29.435Z,95.27
2019-03-16T08:19:29.911Z,95.26
2019-03-16T08:20:31.670Z,95.27
2019-03-16T08:21:30.947Z,95.27
2019-03-16T08:22:31.319Z,95.26
2019-03-16T08:23:31.790Z,95.27
2019-03-16T08:24:32.260Z,95.26
2019-03-16T08:25:32.736Z,95.26
2019-03-16T08:26:33.203Z,95.26
2019-03-16T08:27:33.673Z,95.26
2019-03-16T08:28:34.150Z,95.26
2019-03-16T08:29:34.616Z,95.26
2019-03-16T08:30:35.140Z,95.26
2019-03-16T08:31:35.574Z,95.26
2019-03-16T08:32:36.032Z,95.26
2019-03-16T08:33:36.502Z,95.26
2019-03-16T08:34:36.979Z,95.26
2019-03-16T08:35:37.446Z,95.26
2019-03-16T08:36:37.914Z,95.26
2019-03-16T08:37:38.385Z,95.26
2019-03-16T08:38:38.856Z,95.25
2019-03-16T08:39:39.329Z,95.25
2019-03-16T08:40:39.880Z,95.25
2019-03-16T08:41:40.270Z,95.25
2019-03-16T08:42:40.741Z,95.25
2019-03-16T08:43:41.212Z,95.25
2019-03-16T08:44:41.681Z,95.25
2019-03-16T08:45:42.155Z,95.25
2019-03-16T08:46:42.625Z,95.25
2019-03-16T08:47:43.117Z,95.24
2019-03-16T08:48:43.566Z,95.24
2019-03-16T08:49:44.036Z,95.24
2019-03-16T08:50:44.508Z,95.24
2019-03-16T08:51:44.978Z,95.23
2019-03-16T08:52:45.451Z,95.24
2019-03-16T08:53:45.924Z,95.24
2019-03-16T08:54:46.394Z,95.24
2019-03-16T08:55:46.863Z,95.24
2019-03-16T08:56:47.335Z,95.24
2019-03-16T08:57:47.804Z,95.24
2019-03-16T08:58:48.279Z,95.24
2019-03-16T08:59:48.777Z,95.24
2019-03-16T09:00:49.216Z,95.24
2019-03-16T09:01:49.689Z,95.24
2019-03-16T09:02:50.233Z,95.22
2019-03-16T09:03:50.630Z,95.23
2019-03-16T09:04:51.103Z,95.24
2019-03-16T09:05:51.724Z,95.20
2019-03-16T09:06:53.009Z,95.24
2019-03-16T09:07:52.513Z,95.23
2019-03-16T09:08:52.985Z,95.24
2019-03-16T09:09:53.458Z,95.23
2019-03-16T09:10:53.929Z,95.20
2019-03-16T09:11:54.400Z,95.23
2019-03-16T09:12:55.518Z,95.24
2019-03-16T09:13:55.341Z,95.21
2019-03-16T09:14:55.813Z,95.23
2019-03-16T09:15:56.287Z,95.23
2019-03-16T09:16:56.755Z,95.23
2019-03-16T09:17:57.224Z,95.21
2019-03-16T09:18:57.696Z,95.19
2019-03-16T09:19:58.166Z,95.23
2019-03-16T09:20:58.639Z,95.21
2019-03-16T09:21:59.115Z,95.23
2019-03-16T09:22:59.579Z,95.21
2019-03-16T09:24:00.054Z,95.22
2019-03-16T09:25:00.525Z,95.19
2019-03-16T09:26:00.994Z,95.21
2019-03-16T09:27:01.464Z,95.22
2019-03-16T09:28:01.936Z,95.23
2019-03-16T09:29:10.322Z,95.22
2019-03-16T09:30:02.881Z,95.18
2019-03-16T09:31:03.349Z,95.22
2019-03-16T09:32:03.822Z,95.22
2019-03-16T09:33:04.311Z,95.20
2019-03-16T09:34:04.788Z,95.18
2019-03-16T09:35:05.233Z,95.18
2019-03-16T09:36:05.715Z,95.18
2019-03-16T09:37:06.176Z,95.20
2019-03-16T09:38:06.650Z,95.20
2019-03-16T09:39:07.121Z,95.18
2019-03-16T09:40:07.589Z,95.18
2019-03-16T09:41:08.058Z,95.18
2019-03-16T09:42:08.532Z,95.21
2019-03-16T09:43:09.000Z,95.17
2019-03-16T09:44:09.475Z,95.18
2019-03-16T09:45:09.947Z,95.19
2019-03-16T09:46:10.414Z,95.21
2019-03-16T09:47:10.888Z,95.20
2019-03-16T09:48:11.360Z,95.17
2019-03-16T09:50:12.301Z,95.19
2019-03-16T09:51:12.774Z,95.17
2019-03-16T09:52:13.244Z,95.19
2019-03-16T09:53:13.713Z,95.17
2019-03-16T09:54:14.185Z,95.19
2019-03-16T09:55:14.655Z,95.17
2019-03-16T09:56:15.179Z,95.17
2019-03-16T09:57:15.597Z,95.17
2019-03-16T09:58:16.069Z,95.17
2019-03-16T09:59:16.541Z,95.17
2019-03-16T10:01:17.483Z,95.17
2019-03-16T10:02:17.957Z,95.17
2019-03-16T10:03:18.427Z,95.17
2019-03-16T10:04:18.912Z,95.17
2019-03-16T10:05:19.368Z,95.17
2019-03-16T10:06:19.840Z,95.17
2019-03-16T10:07:20.310Z,95.17
2019-03-16T10:08:20.782Z,95.19
2019-03-16T10:09:21.252Z,95.17
2019-03-16T10:10:21.735Z,95.17
2019-03-16T10:11:22.203Z,95.17
2019-03-16T10:12:22.666Z,95.17
2019-03-16T10:13:23.180Z,95.17
2019-03-16T10:14:23.625Z,95.17
2019-03-16T10:15:24.082Z,95.17
2019-03-16T10:16:24.551Z,95.17
2019-03-16T10:18:25.492Z,95.17
2019-03-16T10:19:25.967Z,95.19
2019-03-16T10:20:26.435Z,95.17
2019-03-16T10:21:26.906Z,95.20
2019-03-16T10:22:27.377Z,95.17
2019-03-16T10:23:27.852Z,95.17
2019-03-16T10:24:28.325Z,95.18
2019-03-16T10:25:28.791Z,95.17
2019-03-16T10:26:29.263Z,95.16
2019-03-16T10:27:29.732Z,95.21
2019-03-16T10:28:30.208Z,95.17
2019-03-16T10:29:30.674Z,95.18
2019-03-16T10:30:31.146Z,95.17
2019-03-16T10:31:31.616Z,95.17
2019-03-16T10:32:32.090Z,95.17
2019-03-16T10:33:32.559Z,95.17
2019-03-16T10:34:33.032Z,95.17
2019-03-16T10:35:33.502Z,95.17
2019-03-16T10:36:34.025Z,95.17
2019-03-16T10:37:34.443Z,95.17
2019-03-16T10:38:34.917Z,95.19
2019-03-16T10:39:35.389Z,95.17
2019-03-16T10:40:35.858Z,95.17
2019-03-16T10:41:36.330Z,95.17
2019-03-16T10:42:36.800Z,95.17
2019-03-16T10:43:37.270Z,95.21
2019-03-16T10:44:37.742Z,95.17
2019-03-16T10:45:38.211Z,95.17
2019-03-16T10:46:38.682Z,95.17
2019-03-16T10:47:39.154Z,95.21
2019-03-16T10:48:39.625Z,95.17
2019-03-16T10:49:40.096Z,95.17
2019-03-16T10:50:40.569Z,95.21
2019-03-16T10:51:41.038Z,95.19
2019-03-16T10:52:41.515Z,95.18
2019-03-16T10:53:41.980Z,95.18
2019-03-16T10:54:42.455Z,95.18
2019-03-16T10:55:42.923Z,95.18
2019-03-16T10:56:43.394Z,95.18
2019-03-16T10:57:43.865Z,95.20
2019-03-16T10:58:55.638Z,95.20
2019-03-16T10:59:44.809Z,95.20
2019-03-16T11:00:45.279Z,95.18
2019-03-16T11:01:45.750Z,95.18
2019-03-16T11:02:46.221Z,95.20
2019-03-16T11:03:46.692Z,95.21
2019-03-16T11:04:47.163Z,95.18
2019-03-16T11:05:47.639Z,95.21
2019-03-16T11:06:48.107Z,95.20
2019-03-16T11:07:48.579Z,95.18
2019-03-16T11:08:49.053Z,95.20
2019-03-16T11:09:49.529Z,95.18
2019-03-16T11:10:49.990Z,95.21
2019-03-16T11:11:50.459Z,95.21
2019-03-16T11:12:50.933Z,95.20
2019-03-16T11:13:51.405Z,95.20
2019-03-16T11:14:51.874Z,95.22
2019-03-16T11:15:52.346Z,95.18
2019-03-16T11:16:52.818Z,95.18
2019-03-16T11:17:53.293Z,95.22
2019-03-16T11:18:53.762Z,95.22
2019-03-16T11:19:54.230Z,95.20
2019-03-16T11:20:54.703Z,95.22
2019-03-16T11:21:55.172Z,95.20
2019-03-16T11:22:55.643Z,95.18
2019-03-16T11:23:56.114Z,95.22
2019-03-16T11:24:56.586Z,95.18
2019-03-16T11:25:57.057Z,95.22
2019-03-16T11:26:57.578Z,95.20
2019-03-16T11:27:58.001Z,95.19
2019-03-16T11:29:08.433Z,95.18
2019-03-16T11:29:58.943Z,95.18
2019-03-16T11:30:59.414Z,95.19
2019-03-16T11:31:59.936Z,95.18
2019-03-16T11:33:00.357Z,95.18
2019-03-16T11:34:00.827Z,95.23
2019-03-16T11:35:01.315Z,95.18
2019-03-16T11:36:01.769Z,95.19
2019-03-16T11:37:02.239Z,95.23
2019-03-16T11:38:02.711Z,95.19
2019-03-16T11:39:03.185Z,95.21
2019-03-16T11:40:03.653Z,95.23
2019-03-16T11:41:04.125Z,95.22
2019-03-16T11:42:04.594Z,95.19
2019-03-16T11:43:05.069Z,95.23
2019-03-16T11:44:05.537Z,95.19
2019-03-16T11:45:06.011Z,95.22
2019-03-16T11:46:06.480Z,95.22
2019-03-16T11:47:07.001Z,95.19
2019-03-16T11:48:07.423Z,95.19
2019-03-16T11:49:07.893Z,95.19
2019-03-16T11:50:08.366Z,95.22
2019-03-16T11:51:08.835Z,95.21
2019-03-16T11:52:09.308Z,95.23
2019-03-16T11:53:09.778Z,95.22
2019-03-16T11:54:10.251Z,95.22
2019-03-16T11:55:10.720Z,95.19
2019-03-16T11:56:17.842Z,95.19
2019-03-16T11:57:11.663Z,95.18
2019-03-16T11:58:12.134Z,95.23
2019-03-16T11:59:21.083Z,95.19
2019-03-16T12:00:13.079Z,95.21
2019-03-16T12:01:13.550Z,95.23
2019-03-16T12:02:14.018Z,95.23
2019-03-16T12:03:14.491Z,95.19
2019-03-16T12:04:14.961Z,95.21
2019-03-16T12:05:15.451Z,95.19
2019-03-16T12:06:15.904Z,95.19
2019-03-16T12:07:16.374Z,95.23
2019-03-16T12:08:16.844Z,95.21
2019-03-16T12:09:17.317Z,95.19
2019-03-16T12:10:17.785Z,95.23
2019-03-16T12:11:18.259Z,95.21
2019-03-16T12:12:18.735Z,95.19
2019-03-16T12:13:19.833Z,95.19
2019-03-16T12:14:19.675Z,95.23
2019-03-16T12:15:20.142Z,95.20
2019-03-16T12:16:20.612Z,95.21
2019-03-16T12:17:21.085Z,95.19
2019-03-16T12:18:21.556Z,95.19
2019-03-16T12:19:22.026Z,95.21
2019-03-16T12:20:22.503Z,95.19
2019-03-16T12:21:22.978Z,95.21
2019-03-16T12:22:23.441Z,95.21
2019-03-16T12:23:23.914Z,95.19
2019-03-16T12:24:24.382Z,95.23
2019-03-16T12:25:24.853Z,95.21
2019-03-16T12:26:25.324Z,95.23
2019-03-16T12:27:25.794Z,95.23
2019-03-16T12:28:26.266Z,95.23
2019-03-16T12:29:33.928Z,95.23
2019-03-16T12:30:27.206Z,95.23
2019-03-16T12:31:27.678Z,95.22
2019-03-16T12:32:28.148Z,95.21
2019-03-16T12:33:28.624Z,95.22
2019-03-16T12:34:29.091Z,95.22
2019-03-16T12:35:29.562Z,95.22
2019-03-16T12:36:30.039Z,95.22
2019-03-16T12:37:30.508Z,95.19
2019-03-16T12:38:30.975Z,95.19
2019-03-16T12:39:31.449Z,95.19
2019-03-16T12:40:31.917Z,95.21
2019-03-16T12:41:32.389Z,95.23
2019-03-16T12:42:32.858Z,95.23
2019-03-16T12:43:33.333Z,95.23
2019-03-16T12:44:33.801Z,95.23
2019-03-16T12:45:34.273Z,95.23
2019-03-16T12:46:34.746Z,95.19
2019-03-16T12:47:35.214Z,95.23
2019-03-16T12:48:35.684Z,95.21
2019-03-16T12:49:36.160Z,95.23
2019-03-16T12:50:36.632Z,95.23
2019-03-16T12:51:37.098Z,95.21
2019-03-16T12:52:37.572Z,95.23
2019-03-16T12:53:39.545Z,95.23
2019-03-16T12:54:38.512Z,95.23
2019-03-16T12:55:38.983Z,95.19
2019-03-16T12:56:39.454Z,95.22
2019-03-16T12:57:39.925Z,95.21
2019-03-16T12:58:40.400Z,95.22
2019-03-16T12:59:46.942Z,95.19
2019-03-16T13:00:41.337Z,95.23
2019-03-16T13:01:41.810Z,95.23
2019-03-16T13:02:42.281Z,95.18